createdAt,value
2017-10-30T12:35:44.965Z,51.47
2017-10-30T12:37:46.213Z,52.02
2017-10-30T12:39:47.485Z,51.88
2017-10-30T12:41:48.767Z,52.02
2017-10-30T12:43:50.043Z,52.10
2017-10-30T12:45:51.279Z,52.10
2017-10-30T12:47:52.572Z,52.06
2017-10-30T12:49:53.811Z,52.13
2017-10-30T12:51:55.138Z,52.11
2017-10-30T12:53:56.396Z,52.33
2017-10-30T12:55:57.820Z,49.41
2017-10-30T12:57:59.119Z,50.22
2017-10-30T13:00:00.361Z,50.62
2017-10-30T13:02:01.623Z,50.39
2017-10-30T13:04:02.860Z,50.53
2017-10-30T13:06:04.123Z,50.75
2017-10-30T13:08:05.463Z,51.25
2017-10-30T13:10:06.692Z,51.45
2017-10-30T13:12:07.959Z,51.46
2017-10-30T13:14:09.311Z,51.45
2017-10-30T13:16:10.534Z,51.27
2017-10-30T13:18:11.831Z,51.51
2017-10-30T13:20:13.102Z,51.54
2017-10-30T13:22:14.352Z,51.48
2017-10-30T13:24:15.659Z,51.44
2017-10-30T13:26:16.872Z,51.46
2017-10-30T13:28:18.111Z,51.54
2017-10-30T13:30:19.387Z,51.40
2017-10-30T13:32:20.636Z,51.45
2017-10-30T13:34:21.904Z,51.50
2017-10-30T13:36:23.149Z,50.93
2017-10-30T13:38:24.411Z,50.80
2017-10-30T13:40:25.601Z,50.95
2017-10-30T13:42:26.874Z,50.67
2017-10-30T13:44:28.158Z,50.67
2017-10-30T13:46:29.447Z,50.61
2017-10-30T13:48:30.698Z,50.45
2017-10-30T13:50:32.041Z,50.65
2017-10-30T13:52:33.268Z,50.64
2017-10-30T13:54:35.427Z,50.81
2017-10-30T13:56:36.683Z,50.66
2017-10-30T13:58:37.915Z,50.75
2017-10-30T14:00:39.126Z,51.18
2017-10-30T14:02:40.305Z,51.29
2017-10-30T14:04:41.564Z,51.46
2017-10-30T14:06:42.848Z,51.31
2017-10-30T14:08:44.062Z,51.55
2017-10-30T14:10:45.290Z,51.54
2017-10-30T14:12:46.537Z,51.36
2017-10-30T14:14:47.750Z,51.14
2017-10-30T14:16:49.007Z,51.37
2017-10-30T14:18:50.221Z,51.68
2017-10-30T14:20:51.468Z,50.62
2017-10-30T14:22:54.718Z,50.57
2017-10-30T14:24:55.939Z,50.80
2017-10-30T14:26:57.173Z,50.94
2017-10-30T14:28:58.542Z,56.36
2017-10-30T14:31:00.912Z,52.79
2017-10-30T14:33:02.070Z,51.19
2017-10-30T14:35:03.339Z,49.01
2017-10-30T14:37:04.596Z,48.12
2017-10-30T14:41:44.497Z,47.65
2017-10-30T14:43:48.042Z,47.72
2017-10-30T14:45:51.483Z,47.79
2017-10-30T14:47:53.646Z,47.75
2017-10-30T14:49:57.403Z,46.82
2017-10-30T14:53:45.806Z,33.60
2017-10-30T14:55:47.862Z,34.90
2017-10-30T14:57:51.504Z,38.65
2017-10-30T14:59:53.528Z,40.28
2017-10-30T15:01:55.187Z,41.83
2017-10-30T15:03:56.570Z,42.66
2017-10-30T15:05:58.242Z,42.97
2017-10-30T15:07:59.619Z,43.57
2017-10-30T15:10:01.154Z,44.79
2017-10-30T15:12:03.109Z,45.69
2017-10-30T15:14:04.570Z,44.95
2017-10-30T15:16:05.899Z,43.93
2017-10-30T15:18:07.248Z,43.28
2017-10-30T15:20:08.844Z,42.60
2017-10-30T15:22:10.168Z,42.06
2017-10-30T15:24:11.608Z,37.73
2017-10-30T15:26:13.348Z,40.22
2017-10-30T15:28:14.690Z,42.75
2017-10-30T15:30:16.343Z,44.20
2017-10-30T15:32:17.903Z,44.88
2017-10-30T15:36:33.528Z,45.21
2017-10-30T15:38:37.017Z,45.13
2017-10-30T15:40:41.296Z,43.96
2017-10-30T15:42:44.701Z,42.46
2017-10-30T15:44:46.502Z,40.32
2017-10-30T15:48:54.786Z,42.74
2017-10-30T15:50:56.133Z,43.38
2017-10-30T15:52:57.207Z,43.98
2017-10-30T15:54:58.259Z,44.60
2017-10-30T15:56:59.371Z,45.13
2017-10-30T15:59:00.416Z,45.61
2017-10-30T16:01:01.475Z,46.01
2017-10-30T16:03:02.566Z,46.35
2017-10-30T16:05:03.606Z,46.67
2017-10-30T16:07:04.642Z,46.98
2017-10-30T16:09:05.752Z,47.25
2017-10-30T16:11:06.787Z,47.49
2017-10-30T16:13:07.843Z,47.71
2017-10-30T16:15:08.961Z,47.90
2017-10-30T16:17:10.031Z,47.90
2017-10-30T16:19:11.078Z,48.08
2017-10-30T16:21:12.198Z,48.24
2017-10-30T16:23:13.282Z,48.38
2017-10-30T16:25:14.336Z,48.51
2017-10-30T16:27:15.468Z,48.63
2017-10-30T16:29:16.550Z,48.75
2017-10-30T16:31:17.636Z,48.84
2017-10-30T16:33:18.745Z,48.98
2017-10-30T16:35:19.793Z,49.04
2017-10-30T16:37:20.811Z,49.11
2017-10-30T16:39:21.909Z,49.18
2017-10-30T16:41:22.987Z,49.25
2017-10-30T16:43:24.056Z,49.30
2017-10-30T16:45:25.161Z,49.34
2017-10-30T16:47:26.208Z,49.39
2017-10-30T16:49:27.291Z,49.47
2017-10-30T16:51:28.397Z,49.50
2017-10-30T16:53:29.429Z,49.55
2017-10-30T16:55:30.456Z,49.58
2017-10-30T16:57:31.820Z,49.62
2017-10-30T16:59:32.877Z,49.65
2017-10-30T17:01:33.983Z,45.82
2017-10-30T17:03:35.808Z,45.91
2017-10-30T17:05:36.886Z,46.00
2017-10-30T17:07:37.962Z,46.07
2017-10-30T17:09:39.086Z,46.06
2017-10-30T17:11:40.119Z,46.12
2017-10-30T17:13:41.168Z,46.07
2017-10-30T17:15:42.298Z,46.12
2017-10-30T17:17:43.350Z,46.17
2017-10-30T17:19:44.395Z,46.22
2017-10-30T17:21:45.523Z,46.26
2017-10-30T17:23:46.607Z,46.33
2017-10-30T17:25:47.684Z,46.37
2017-10-30T17:27:48.815Z,46.42
2017-10-30T17:29:49.887Z,46.48
2017-10-30T17:31:50.947Z,46.57
2017-10-30T17:33:52.093Z,46.63
2017-10-30T17:35:53.188Z,46.70
2017-10-30T17:37:54.227Z,46.76
2017-10-30T17:39:55.366Z,46.88
2017-10-30T17:41:56.399Z,46.96
2017-10-30T17:43:57.715Z,47.02
2017-10-30T17:45:58.858Z,47.11
2017-10-30T17:48:00.037Z,47.15
2017-10-30T17:50:01.188Z,47.20
2017-10-30T17:52:02.555Z,47.28
2017-10-30T17:54:03.759Z,47.35
2017-10-30T17:56:04.941Z,47.44
2017-10-30T17:58:06.164Z,47.48
2017-10-30T18:00:07.275Z,47.59
2017-10-30T18:02:08.355Z,47.67
2017-10-30T18:04:09.466Z,47.74
2017-10-30T18:06:10.819Z,47.81
2017-10-30T18:08:11.943Z,47.89
2017-10-30T18:10:13.183Z,47.94
2017-10-30T18:12:14.228Z,48.01
2017-10-30T18:14:15.295Z,48.05
2017-10-30T18:16:16.402Z,48.09
2017-10-30T18:18:17.472Z,48.13
2017-10-30T18:20:18.557Z,48.18
2017-10-30T18:22:19.696Z,48.22
2017-10-30T18:24:20.747Z,48.27
2017-10-30T18:26:22.376Z,48.34
2017-10-30T18:28:23.704Z,48.37
2017-10-30T18:30:25.154Z,48.42
2017-10-30T18:32:26.240Z,48.46
2017-10-30T18:34:27.477Z,48.53
2017-10-30T18:36:28.507Z,48.56
2017-10-30T18:38:29.788Z,48.60
2017-10-30T18:40:30.881Z,48.63
2017-10-30T18:42:31.919Z,48.70
2017-10-30T18:44:33.615Z,48.73
2017-10-30T18:46:34.724Z,48.75
2017-10-30T18:48:35.843Z,48.78
2017-10-30T18:50:36.890Z,48.80
2017-10-30T18:52:38.177Z,48.83
2017-10-30T18:54:39.219Z,48.85
2017-10-30T18:56:40.295Z,48.90
2017-10-30T18:58:41.446Z,48.92
2017-10-30T19:00:42.541Z,48.96
2017-10-30T19:02:43.653Z,48.96
2017-10-30T19:04:44.886Z,48.98
2017-10-30T19:06:45.973Z,49.00
2017-10-30T19:08:47.032Z,49.04
2017-10-30T19:10:48.182Z,49.05
2017-10-30T19:12:49.270Z,49.06
2017-10-30T19:14:50.313Z,49.08
2017-10-30T19:16:51.664Z,49.11
2017-10-30T19:18:52.757Z,49.12
2017-10-30T19:20:53.799Z,49.15
2017-10-30T19:22:54.900Z,49.16
2017-10-30T19:24:55.986Z,49.18
2017-10-30T19:26:57.067Z,49.21
2017-10-30T19:28:58.204Z,49.22
2017-10-30T19:30:59.410Z,49.26
2017-10-30T19:33:01.708Z,49.28
2017-10-30T19:35:02.905Z,49.26
2017-10-30T19:37:03.958Z,49.27
2017-10-30T19:39:04.988Z,49.29
2017-10-30T19:41:06.096Z,48.96
2017-10-30T19:43:07.176Z,48.90
2017-10-30T19:45:08.220Z,48.91
2017-10-30T19:47:09.832Z,48.86
2017-10-30T19:49:10.869Z,48.79
2017-10-30T19:51:11.934Z,48.70
2017-10-30T19:53:13.225Z,48.68
2017-10-30T19:55:14.261Z,48.55
2017-10-30T19:57:15.316Z,48.58
2017-10-30T19:59:16.619Z,48.45
2017-10-30T20:01:17.700Z,48.51
2017-10-30T20:03:18.738Z,48.48
2017-10-30T20:05:20.580Z,48.47
2017-10-30T20:07:22.446Z,48.49
2017-10-30T20:09:24.402Z,48.52
2017-10-30T20:11:25.768Z,48.47
2017-10-30T20:13:29.010Z,48.42
2017-10-30T20:15:30.057Z,48.38
2017-10-30T20:17:31.505Z,48.44
2017-10-30T20:19:32.835Z,48.40
2017-10-30T20:21:33.890Z,48.45
2017-10-30T20:23:35.280Z,48.46
2017-10-30T20:25:36.352Z,48.42
2017-10-30T20:27:37.431Z,48.55
2017-10-30T20:29:38.573Z,48.48
2017-10-30T20:31:39.616Z,48.66
2017-10-30T20:33:40.722Z,48.57
2017-10-30T20:35:41.876Z,48.54
2017-10-30T20:37:42.932Z,48.73
2017-10-30T20:39:43.972Z,48.71
2017-10-30T20:41:45.077Z,48.77
2017-10-30T20:43:46.135Z,48.74
2017-10-30T20:45:47.495Z,48.86
2017-10-30T20:47:48.614Z,48.89
2017-10-30T20:49:49.711Z,48.90
2017-10-30T20:51:50.801Z,48.95
2017-10-30T20:53:51.960Z,48.99
2017-10-30T20:55:53.303Z,49.01
2017-10-30T20:57:54.453Z,48.98
2017-10-30T20:59:55.763Z,49.05
2017-10-30T21:01:57.021Z,48.94
2017-10-30T21:03:58.100Z,49.04
2017-10-30T21:05:59.218Z,49.14
2017-10-30T21:08:00.458Z,49.17
2017-10-30T21:10:01.755Z,49.34
2017-10-30T21:12:02.930Z,49.18
2017-10-30T21:14:04.292Z,49.24
2017-10-30T21:16:05.355Z,49.39
2017-10-30T21:18:06.489Z,49.37
2017-10-30T21:20:07.569Z,49.45
2017-10-30T21:22:08.626Z,49.46
2017-10-30T21:24:09.768Z,49.46
2017-10-30T21:26:12.885Z,49.49
2017-10-30T21:28:14.171Z,49.44
2017-10-30T21:30:15.323Z,49.55
2017-10-30T21:32:17.235Z,49.57
2017-10-30T21:34:20.412Z,49.64
2017-10-30T21:36:21.990Z,49.63
2017-10-30T21:38:23.090Z,49.62
2017-10-30T21:40:24.175Z,49.77
2017-10-30T21:42:25.325Z,49.79
2017-10-30T21:44:26.529Z,49.86
2017-10-30T21:46:27.593Z,49.87
2017-10-30T21:48:28.758Z,49.90
2017-10-30T21:50:29.819Z,49.94
2017-10-30T21:52:30.899Z,49.98
2017-10-30T21:54:32.025Z,50.05
2017-10-30T21:56:33.074Z,50.00
2017-10-30T21:58:34.130Z,50.09
2017-10-30T22:00:35.275Z,50.11
2017-10-30T22:02:37.483Z,50.13
2017-10-30T22:04:38.531Z,50.16
2017-10-30T22:06:39.672Z,50.14
2017-10-30T22:08:40.778Z,50.21
2017-10-30T22:10:41.829Z,50.23
2017-10-30T22:12:43.179Z,50.26
2017-10-30T22:14:44.217Z,50.26
2017-10-30T22:16:45.252Z,50.22
2017-10-30T22:18:47.044Z,50.23
2017-10-30T22:20:48.126Z,50.26
2017-10-30T22:22:49.219Z,50.26
2017-10-30T22:24:50.336Z,50.26
2017-10-30T22:26:51.362Z,50.29
2017-10-30T22:28:52.410Z,50.27
2017-10-30T22:30:53.563Z,50.34
2017-10-30T22:32:54.613Z,50.39
2017-10-30T22:34:55.684Z,50.42
2017-10-30T22:36:56.815Z,50.46
2017-10-30T22:38:57.862Z,50.50
2017-10-30T22:40:58.966Z,50.57
2017-10-30T22:43:00.076Z,50.61
2017-10-30T22:45:01.324Z,50.64
2017-10-30T22:47:02.385Z,50.72
2017-10-30T22:49:03.673Z,50.77
2017-10-30T22:51:04.749Z,50.81
2017-10-30T22:53:05.845Z,50.87
2017-10-30T22:55:06.977Z,50.91
2017-10-30T22:57:08.039Z,50.95
2017-10-30T22:59:09.085Z,51.04
2017-10-30T23:01:10.220Z,51.05
2017-10-30T23:03:11.280Z,51.15
2017-10-30T23:05:12.358Z,51.17
2017-10-30T23:07:13.459Z,51.24
2017-10-30T23:09:14.522Z,51.26
2017-10-30T23:11:15.545Z,51.35
2017-10-30T23:13:16.690Z,51.42
2017-10-30T23:15:17.769Z,51.41
2017-10-30T23:17:18.805Z,51.46
2017-10-30T23:19:19.912Z,51.49
2017-10-30T23:21:20.981Z,51.46
2017-10-30T23:23:22.023Z,51.51
2017-10-30T23:25:23.145Z,51.59
2017-10-30T23:27:24.196Z,51.57
2017-10-30T23:29:25.295Z,51.65
2017-10-30T23:31:26.451Z,51.66
2017-10-30T23:33:27.731Z,51.72
2017-10-30T23:35:28.794Z,51.75
2017-10-30T23:37:29.961Z,51.76
2017-10-30T23:39:31.061Z,51.73
2017-10-30T23:41:32.123Z,51.84
2017-10-30T23:43:33.262Z,51.84
2017-10-30T23:45:34.710Z,51.92
2017-10-30T23:47:35.769Z,51.94
2017-10-30T23:49:36.876Z,52.17
2017-10-30T23:51:37.873Z,52.09
2017-10-30T23:53:38.931Z,52.14
2017-10-30T23:55:40.040Z,52.20
2017-10-30T23:57:41.127Z,52.27
2017-10-30T23:59:42.215Z,52.42
